sensor_id;sensor_type;location;lat;lon;timestamp;P1;durP1;ratioP1;P2;durP2;ratioP2
25952;SDS011;13750;50.804;8.764;2022-08-01T00:00:35;1.17;;;0.90;;
25952;SDS011;13750;50.804;8.764;2022-08-01T00:03:01;1.10;;;0.93;;
25952;SDS011;13750;50.804;8.764;2022-08-01T00:05:27;1.20;;;0.95;;
25952;SDS011;13750;50.804;8.764;2022-08-01T00:07:52;0.97;;;0.97;;
25952;SDS011;13750;50.804;8.764;2022-08-01T00:10:18;2.00;;;1.15;;
25952;SDS011;13750;50.804;8.764;2022-08-01T00:12:44;1.53;;;1.00;;
25952;SDS011;13750;50.804;8.764;2022-08-01T00:15:12;1.20;;;1.10;;
25952;SDS011;13750;50.804;8.764;2022-08-01T00:17:39;0.90;;;0.90;;
25952;SDS011;13750;50.804;8.764;2022-08-01T00:20:06;0.80;;;0.80;;
25952;SDS011;13750;50.804;8.764;2022-08-01T00:22:34;1.10;;;1.00;;
25952;SDS011;13750;50.804;8.764;2022-08-01T00:25:00;0.85;;;0.85;;
25952;SDS011;13750;50.804;8.764;2022-08-01T00:27:26;0.80;;;0.80;;
25952;SDS011;13750;50.804;8.764;2022-08-01T00:29:52;0.70;;;0.70;;
25952;SDS011;13750;50.804;8.764;2022-08-01T00:32:18;0.75;;;0.73;;
25952;SDS011;13750;50.804;8.764;2022-08-01T00:34:43;0.90;;;0.80;;
25952;SDS011;13750;50.804;8.764;2022-08-01T00:37:09;0.90;;;0.90;;
25952;SDS011;13750;50.804;8.764;2022-08-01T00:39:35;1.63;;;0.80;;
25952;SDS011;13750;50.804;8.764;2022-08-01T00:42:08;1.10;;;1.00;;
25952;SDS011;13750;50.804;8.764;2022-08-01T00:44:35;0.88;;;0.88;;
25952;SDS011;13750;50.804;8.764;2022-08-01T00:47:01;0.88;;;0.88;;
25952;SDS011;13750;50.804;8.764;2022-08-01T00:51:54;1.30;;;1.20;;
25952;SDS011;13750;50.804;8.764;2022-08-01T00:54:20;1.30;;;1.20;;
25952;SDS011;13750;50.804;8.764;2022-08-01T00:56:47;1.30;;;1.20;;
25952;SDS011;13750;50.804;8.764;2022-08-01T00:59:13;1.20;;;1.07;;
25952;SDS011;13750;50.804;8.764;2022-08-01T01:01:41;1.23;;;1.13;;
25952;SDS011;13750;50.804;8.764;2022-08-01T01:04:07;1.20;;;1.10;;
25952;SDS011;13750;50.804;8.764;2022-08-01T01:09:33;1.23;;;1.13;;
25952;SDS011;13750;50.804;8.764;2022-08-01T01:12:10;1.30;;;1.20;;
25952;SDS011;13750;50.804;8.764;2022-08-01T01:17:11;1.08;;;0.98;;
25952;SDS011;13750;50.804;8.764;2022-08-01T01:19:45;1.00;;;1.00;;
25952;SDS011;13750;50.804;8.764;2022-08-01T01:24:58;1.20;;;1.10;;
25952;SDS011;13750;50.804;8.764;2022-08-01T01:28:03;1.23;;;1.13;;
25952;SDS011;13750;50.804;8.764;2022-08-01T01:30:39;1.33;;;1.10;;
25952;SDS011;13750;50.804;8.764;2022-08-01T01:33:08;1.13;;;1.02;;
25952;SDS011;13750;50.804;8.764;2022-08-01T01:35:36;1.10;;;1.00;;
25952;SDS011;13750;50.804;8.764;2022-08-01T01:38:07;1.63;;;1.25;;
25952;SDS011;13750;50.804;8.764;2022-08-01T01:40:39;1.10;;;1.00;;
25952;SDS011;13750;50.804;8.764;2022-08-01T01:43:07;0.90;;;0.90;;
25952;SDS011;13750;50.804;8.764;2022-08-01T01:45:36;1.00;;;0.90;;
25952;SDS011;13750;50.804;8.764;2022-08-01T01:48:04;1.00;;;0.90;;
25952;SDS011;13750;50.804;8.764;2022-08-01T01:50:32;1.13;;;1.02;;
25952;SDS011;13750;50.804;8.764;2022-08-01T01:52:58;1.00;;;1.00;;
25952;SDS011;13750;50.804;8.764;2022-08-01T01:55:26;1.08;;;1.00;;
25952;SDS011;13750;50.804;8.764;2022-08-01T01:57:53;1.30;;;1.20;;
25952;SDS011;13750;50.804;8.764;2022-08-01T02:00:21;1.60;;;1.50;;
25952;SDS011;13750;50.804;8.764;2022-08-01T02:02:48;1.40;;;1.30;;
25952;SDS011;13750;50.804;8.764;2022-08-01T02:05:16;2.00;;;1.80;;
25952;SDS011;13750;50.804;8.764;2022-08-01T02:07:43;1.88;;;1.67;;
25952;SDS011;13750;50.804;8.764;2022-08-01T02:10:10;1.98;;;1.58;;
25952;SDS011;13750;50.804;8.764;2022-08-01T02:12:37;1.70;;;1.33;;
25952;SDS011;13750;50.804;8.764;2022-08-01T02:15:06;1.70;;;1.52;;
25952;SDS011;13750;50.804;8.764;2022-08-01T02:17:34;1.40;;;1.30;;
25952;SDS011;13750;50.804;8.764;2022-08-01T02:20:04;1.42;;;1.33;;
25952;SDS011;13750;50.804;8.764;2022-08-01T02:22:32;1.42;;;1.33;;
25952;SDS011;13750;50.804;8.764;2022-08-01T02:25:03;1.98;;;1.40;;
25952;SDS011;13750;50.804;8.764;2022-08-01T02:27:38;1.50;;;1.40;;
25952;SDS011;13750;50.804;8.764;2022-08-01T02:30:09;1.40;;;1.15;;
25952;SDS011;13750;50.804;8.764;2022-08-01T02:35:26;1.10;;;1.00;;
25952;SDS011;13750;50.804;8.764;2022-08-01T02:37:53;1.33;;;1.23;;
25952;SDS011;13750;50.804;8.764;2022-08-01T02:40:20;1.30;;;1.20;;
25952;SDS011;13750;50.804;8.764;2022-08-01T02:42:50;1.10;;;1.00;;
25952;SDS011;13750;50.804;8.764;2022-08-01T02:45:17;1.65;;;1.25;;
25952;SDS011;13750;50.804;8.764;2022-08-01T02:47:45;1.60;;;1.30;;
25952;SDS011;13750;50.804;8.764;2022-08-01T02:50:13;1.45;;;1.35;;
25952;SDS011;13750;50.804;8.764;2022-08-01T02:52:41;1.40;;;1.30;;
25952;SDS011;13750;50.804;8.764;2022-08-01T02:55:12;1.65;;;1.55;;
25952;SDS011;13750;50.804;8.764;2022-08-01T02:57:38;1.40;;;1.30;;
25952;SDS011;13750;50.804;8.764;2022-08-01T03:00:07;1.85;;;1.45;;
25952;SDS011;13750;50.804;8.764;2022-08-01T03:02:33;2.03;;;1.75;;
25952;SDS011;13750;50.804;8.764;2022-08-01T03:05:00;1.77;;;1.65;;
25952;SDS011;13750;50.804;8.764;2022-08-01T03:07:26;1.55;;;1.45;;
25952;SDS011;13750;50.804;8.764;2022-08-01T03:09:55;2.20;;;1.80;;
25952;SDS011;13750;50.804;8.764;2022-08-01T03:12:22;2.10;;;1.95;;
25952;SDS011;13750;50.804;8.764;2022-08-01T03:14:52;1.80;;;1.70;;
25952;SDS011;13750;50.804;8.764;2022-08-01T03:17:21;1.65;;;1.55;;
25952;SDS011;13750;50.804;8.764;2022-08-01T03:19:49;1.73;;;1.63;;
25952;SDS011;13750;50.804;8.764;2022-08-01T03:22:17;1.85;;;1.75;;
25952;SDS011;13750;50.804;8.764;2022-08-01T03:24:44;2.10;;;1.92;;
25952;SDS011;13750;50.804;8.764;2022-08-01T03:27:14;1.92;;;1.60;;
25952;SDS011;13750;50.804;8.764;2022-08-01T03:32:07;1.77;;;1.67;;
25952;SDS011;13750;50.804;8.764;2022-08-01T03:34:36;2.80;;;2.60;;
25952;SDS011;13750;50.804;8.764;2022-08-01T03:37:03;3.27;;;2.97;;
25952;SDS011;13750;50.804;8.764;2022-08-01T03:39:36;3.15;;;2.95;;
25952;SDS011;13750;50.804;8.764;2022-08-01T03:42:14;3.83;;;3.38;;
25952;SDS011;13750;50.804;8.764;2022-08-01T03:44:46;3.22;;;2.97;;
25952;SDS011;13750;50.804;8.764;2022-08-01T03:47:18;3.95;;;3.47;;
25952;SDS011;13750;50.804;8.764;2022-08-01T03:49:47;3.10;;;2.90;;
25952;SDS011;13750;50.804;8.764;2022-08-01T03:52:14;3.45;;;3.15;;
25952;SDS011;13750;50.804;8.764;2022-08-01T03:54:43;3.10;;;2.90;;
25952;SDS011;13750;50.804;8.764;2022-08-01T03:57:12;2.88;;;2.47;;
25952;SDS011;13750;50.804;8.764;2022-08-01T03:59:39;2.63;;;2.42;;
25952;SDS011;13750;50.804;8.764;2022-08-01T04:02:05;2.92;;;2.72;;
25952;SDS011;13750;50.804;8.764;2022-08-01T04:04:32;2.42;;;2.22;;
25952;SDS011;13750;50.804;8.764;2022-08-01T04:06:58;3.95;;;3.58;;
25952;SDS011;13750;50.804;8.764;2022-08-01T04:09:29;4.05;;;3.40;;
25952;SDS011;13750;50.804;8.764;2022-08-01T04:11:57;3.58;;;3.28;;
25952;SDS011;13750;50.804;8.764;2022-08-01T04:14:25;3.78;;;3.47;;
25952;SDS011;13750;50.804;8.764;2022-08-01T04:16:52;4.05;;;3.75;;
25952;SDS011;13750;50.804;8.764;2022-08-01T04:19:18;3.38;;;3.10;;
25952;SDS011;13750;50.804;8.764;2022-08-01T04:21:44;3.22;;;3.03;;
25952;SDS011;13750;50.804;8.764;2022-08-01T04:24:13;3.65;;;3.35;;
25952;SDS011;13750;50.804;8.764;2022-08-01T04:26:43;3.35;;;3.05;;
25952;SDS011;13750;50.804;8.764;2022-08-01T04:29:11;3.55;;;3.25;;
25952;SDS011;13750;50.804;8.764;2022-08-01T04:31:41;4.10;;;3.70;;
25952;SDS011;13750;50.804;8.764;2022-08-01T04:34:09;3.25;;;2.95;;
25952;SDS011;13750;50.804;8.764;2022-08-01T04:36:39;3.35;;;3.05;;
25952;SDS011;13750;50.804;8.764;2022-08-01T04:39:07;3.33;;;3.10;;
25952;SDS011;13750;50.804;8.764;2022-08-01T04:41:34;3.72;;;3.42;;
25952;SDS011;13750;50.804;8.764;2022-08-01T04:44:01;3.85;;;3.47;;
25952;SDS011;13750;50.804;8.764;2022-08-01T04:46:28;3.55;;;3.13;;
25952;SDS011;13750;50.804;8.764;2022-08-01T04:51:20;3.75;;;3.45;;
25952;SDS011;13750;50.804;8.764;2022-08-01T04:53:47;3.65;;;3.03;;
25952;SDS011;13750;50.804;8.764;2022-08-01T04:58:43;3.47;;;3.15;;
25952;SDS011;13750;50.804;8.764;2022-08-01T05:01:09;2.63;;;2.42;;
25952;SDS011;13750;50.804;8.764;2022-08-01T05:06:01;3.38;;;2.90;;
25952;SDS011;13750;50.804;8.764;2022-08-01T05:08:27;3.00;;;2.70;;
25952;SDS011;13750;50.804;8.764;2022-08-01T05:10:52;2.03;;;1.93;;
25952;SDS011;13750;50.804;8.764;2022-08-01T05:13:18;2.57;;;2.03;;
25952;SDS011;13750;50.804;8.764;2022-08-01T05:15:44;2.20;;;2.00;;
25952;SDS011;13750;50.804;8.764;2022-08-01T05:18:10;2.03;;;1.87;;
25952;SDS011;13750;50.804;8.764;2022-08-01T05:20:36;2.50;;;2.30;;
25952;SDS011;13750;50.804;8.764;2022-08-01T05:23:02;2.38;;;2.17;;
25952;SDS011;13750;50.804;8.764;2022-08-01T05:27:54;2.40;;;2.20;;
25952;SDS011;13750;50.804;8.764;2022-08-01T05:30:19;2.63;;;2.43;;
25952;SDS011;13750;50.804;8.764;2022-08-01T05:32:45;1.83;;;1.73;;
25952;SDS011;13750;50.804;8.764;2022-08-01T05:35:10;2.47;;;2.10;;
25952;SDS011;13750;50.804;8.764;2022-08-01T05:37:36;2.13;;;1.97;;
25952;SDS011;13750;50.804;8.764;2022-08-01T05:40:02;2.20;;;2.00;;
25952;SDS011;13750;50.804;8.764;2022-08-01T05:42:29;2.35;;;2.15;;
25952;SDS011;13750;50.804;8.764;2022-08-01T05:44:55;2.00;;;1.80;;
25952;SDS011;13750;50.804;8.764;2022-08-01T05:47:20;2.00;;;1.80;;
25952;SDS011;13750;50.804;8.764;2022-08-01T05:49:46;2.27;;;2.07;;
25952;SDS011;13750;50.804;8.764;2022-08-01T05:52:12;1.93;;;1.73;;
25952;SDS011;13750;50.804;8.764;2022-08-01T05:54:38;2.03;;;1.88;;
25952;SDS011;13750;50.804;8.764;2022-08-01T05:57:04;1.93;;;1.77;;
25952;SDS011;13750;50.804;8.764;2022-08-01T05:59:29;1.83;;;1.70;;
25952;SDS011;13750;50.804;8.764;2022-08-01T06:01:55;1.85;;;1.75;;
25952;SDS011;13750;50.804;8.764;2022-08-01T06:04:21;2.00;;;1.80;;
25952;SDS011;13750;50.804;8.764;2022-08-01T06:06:47;2.13;;;1.77;;
25952;SDS011;13750;50.804;8.764;2022-08-01T06:09:13;2.13;;;1.93;;
25952;SDS011;13750;50.804;8.764;2022-08-01T06:11:38;2.27;;;2.03;;
25952;SDS011;13750;50.804;8.764;2022-08-01T06:14:04;1.83;;;1.73;;
25952;SDS011;13750;50.804;8.764;2022-08-01T06:16:30;2.13;;;2.00;;
25952;SDS011;13750;50.804;8.764;2022-08-01T06:18:55;2.17;;;1.97;;
25952;SDS011;13750;50.804;8.764;2022-08-01T06:21:21;2.10;;;1.90;;
25952;SDS011;13750;50.804;8.764;2022-08-01T06:23:47;2.07;;;1.87;;
25952;SDS011;13750;50.804;8.764;2022-08-01T06:26:12;2.50;;;2.23;;
25952;SDS011;13750;50.804;8.764;2022-08-01T06:28:38;2.60;;;2.30;;
25952;SDS011;13750;50.804;8.764;2022-08-01T06:31:04;2.03;;;1.80;;
25952;SDS011;13750;50.804;8.764;2022-08-01T06:33:30;2.03;;;1.92;;
25952;SDS011;13750;50.804;8.764;2022-08-01T06:35:55;2.20;;;2.00;;
25952;SDS011;13750;50.804;8.764;2022-08-01T06:38:21;2.33;;;2.13;;
25952;SDS011;13750;50.804;8.764;2022-08-01T06:40:47;1.73;;;1.63;;
25952;SDS011;13750;50.804;8.764;2022-08-01T06:43:12;2.10;;;1.90;;
25952;SDS011;13750;50.804;8.764;2022-08-01T06:45:39;2.30;;;2.10;;
25952;SDS011;13750;50.804;8.764;2022-08-01T06:48:05;2.80;;;2.35;;
25952;SDS011;13750;50.804;8.764;2022-08-01T06:50:30;2.10;;;1.70;;
25952;SDS011;13750;50.804;8.764;2022-08-01T06:52:56;1.83;;;1.70;;
25952;SDS011;13750;50.804;8.764;2022-08-01T06:55:22;2.47;;;1.97;;
25952;SDS011;13750;50.804;8.764;2022-08-01T06:57:48;3.17;;;2.47;;
25952;SDS011;13750;50.804;8.764;2022-08-01T07:00:15;2.10;;;1.90;;
25952;SDS011;13750;50.804;8.764;2022-08-01T07:02:44;2.60;;;2.40;;
25952;SDS011;13750;50.804;8.764;2022-08-01T07:05:10;3.60;;;3.00;;
25952;SDS011;13750;50.804;8.764;2022-08-01T07:07:36;3.17;;;2.87;;
25952;SDS011;13750;50.804;8.764;2022-08-01T07:10:02;2.97;;;2.65;;
25952;SDS011;13750;50.804;8.764;2022-08-01T07:12:28;3.50;;;3.20;;
25952;SDS011;13750;50.804;8.764;2022-08-01T07:14:53;5.33;;;3.70;;
25952;SDS011;13750;50.804;8.764;2022-08-01T07:17:19;4.23;;;3.83;;
25952;SDS011;13750;50.804;8.764;2022-08-01T07:19:45;4.35;;;3.95;;
25952;SDS011;13750;50.804;8.764;2022-08-01T07:22:11;3.97;;;3.67;;
25952;SDS011;13750;50.804;8.764;2022-08-01T07:24:38;4.13;;;3.20;;
25952;SDS011;13750;50.804;8.764;2022-08-01T07:27:04;4.10;;;3.80;;
25952;SDS011;13750;50.804;8.764;2022-08-01T07:29:30;3.63;;;3.33;;
25952;SDS011;13750;50.804;8.764;2022-08-01T07:31:56;4.23;;;3.57;;
25952;SDS011;13750;50.804;8.764;2022-08-01T07:34:22;3.15;;;2.92;;
25952;SDS011;13750;50.804;8.764;2022-08-01T07:36:50;2.78;;;2.58;;
25952;SDS011;13750;50.804;8.764;2022-08-01T07:39:16;3.47;;;2.83;;
25952;SDS011;13750;50.804;8.764;2022-08-01T07:41:42;3.92;;;3.50;;
25952;SDS011;13750;50.804;8.764;2022-08-01T07:44:07;3.80;;;3.20;;
25952;SDS011;13750;50.804;8.764;2022-08-01T07:46:33;3.03;;;2.80;;
25952;SDS011;13750;50.804;8.764;2022-08-01T07:48:59;3.60;;;3.30;;
25952;SDS011;13750;50.804;8.764;2022-08-01T07:51:25;2.57;;;2.37;;
25952;SDS011;13750;50.804;8.764;2022-08-01T07:53:50;3.40;;;3.10;;
25952;SDS011;13750;50.804;8.764;2022-08-01T07:56:16;2.90;;;2.70;;
25952;SDS011;13750;50.804;8.764;2022-08-01T07:58:42;2.50;;;2.30;;
25952;SDS011;13750;50.804;8.764;2022-08-01T08:01:07;3.03;;;2.77;;
25952;SDS011;13750;50.804;8.764;2022-08-01T08:03:33;2.93;;;2.60;;
25952;SDS011;13750;50.804;8.764;2022-08-01T08:05:58;3.00;;;2.70;;
25952;SDS011;13750;50.804;8.764;2022-08-01T08:08:24;3.80;;;3.47;;
25952;SDS011;13750;50.804;8.764;2022-08-01T08:10:50;3.37;;;3.07;;
25952;SDS011;13750;50.804;8.764;2022-08-01T08:13:16;3.30;;;3.00;;
25952;SDS011;13750;50.804;8.764;2022-08-01T08:15:42;4.55;;;4.07;;
25952;SDS011;13750;50.804;8.764;2022-08-01T08:18:08;4.57;;;4.18;;
25952;SDS011;13750;50.804;8.764;2022-08-01T08:20:33;4.70;;;4.00;;
25952;SDS011;13750;50.804;8.764;2022-08-01T08:22:59;5.17;;;3.40;;
25952;SDS011;13750;50.804;8.764;2022-08-01T08:25:25;5.63;;;4.60;;
25952;SDS011;13750;50.804;8.764;2022-08-01T08:27:51;5.18;;;4.68;;
25952;SDS011;13750;50.804;8.764;2022-08-01T08:30:17;6.05;;;5.10;;
25952;SDS011;13750;50.804;8.764;2022-08-01T08:32:43;4.82;;;4.38;;
25952;SDS011;13750;50.804;8.764;2022-08-01T08:35:09;5.97;;;4.25;;
25952;SDS011;13750;50.804;8.764;2022-08-01T08:37:35;4.47;;;4.07;;
25952;SDS011;13750;50.804;8.764;2022-08-01T08:40:02;5.07;;;4.18;;
25952;SDS011;13750;50.804;8.764;2022-08-01T08:42:29;5.40;;;4.65;;
25952;SDS011;13750;50.804;8.764;2022-08-01T08:44:54;4.47;;;4.07;;
25952;SDS011;13750;50.804;8.764;2022-08-01T08:47:21;5.47;;;4.97;;
25952;SDS011;13750;50.804;8.764;2022-08-01T08:49:52;6.75;;;4.72;;
25952;SDS011;13750;50.804;8.764;2022-08-01T08:52:19;4.68;;;3.88;;
25952;SDS011;13750;50.804;8.764;2022-08-01T08:54:47;4.07;;;3.67;;
25952;SDS011;13750;50.804;8.764;2022-08-01T08:57:14;3.60;;;3.17;;
25952;SDS011;13750;50.804;8.764;2022-08-01T08:59:40;3.17;;;2.88;;
25952;SDS011;13750;50.804;8.764;2022-08-01T09:02:08;3.28;;;2.97;;
25952;SDS011;13750;50.804;8.764;2022-08-01T09:04:36;3.45;;;3.15;;
25952;SDS011;13750;50.804;8.764;2022-08-01T09:09:29;4.40;;;4.00;;
25952;SDS011;13750;50.804;8.764;2022-08-01T09:11:55;4.20;;;3.80;;
25952;SDS011;13750;50.804;8.764;2022-08-01T09:14:21;6.38;;;4.22;;
25952;SDS011;13750;50.804;8.764;2022-08-01T09:17:05;4.40;;;3.97;;
25952;SDS011;13750;50.804;8.764;2022-08-01T09:19:37;4.70;;;4.30;;
25952;SDS011;13750;50.804;8.764;2022-08-01T09:22:06;5.00;;;4.50;;
25952;SDS011;13750;50.804;8.764;2022-08-01T09:24:33;5.80;;;5.30;;
25952;SDS011;13750;50.804;8.764;2022-08-01T09:27:00;4.32;;;3.88;;
25952;SDS011;13750;50.804;8.764;2022-08-01T09:29:39;4.80;;;4.40;;
25952;SDS011;13750;50.804;8.764;2022-08-01T09:32:05;4.53;;;4.10;;
25952;SDS011;13750;50.804;8.764;2022-08-01T09:34:31;4.30;;;3.90;;
25952;SDS011;13750;50.804;8.764;2022-08-01T09:36:58;4.15;;;3.75;;
25952;SDS011;13750;50.804;8.764;2022-08-01T09:39:26;4.10;;;3.70;;
25952;SDS011;13750;50.804;8.764;2022-08-01T09:44:19;3.85;;;3.50;;
25952;SDS011;13750;50.804;8.764;2022-08-01T09:47:06;3.67;;;3.28;;
25952;SDS011;13750;50.804;8.764;2022-08-01T09:49:35;3.75;;;3.40;;
25952;SDS011;13750;50.804;8.764;2022-08-01T09:52:10;4.03;;;3.58;;
25952;SDS011;13750;50.804;8.764;2022-08-01T09:57:16;4.63;;;4.22;;
25952;SDS011;13750;50.804;8.764;2022-08-01T09:59:47;4.43;;;4.03;;
25952;SDS011;13750;50.804;8.764;2022-08-01T10:02:26;4.05;;;3.65;;
25952;SDS011;13750;50.804;8.764;2022-08-01T10:04:52;4.07;;;3.67;;
25952;SDS011;13750;50.804;8.764;2022-08-01T10:07:18;3.58;;;3.28;;
25952;SDS011;13750;50.804;8.764;2022-08-01T10:09:44;3.42;;;3.13;;
25952;SDS011;13750;50.804;8.764;2022-08-01T10:12:12;3.90;;;3.50;;
25952;SDS011;13750;50.804;8.764;2022-08-01T10:14:40;3.95;;;3.58;;
25952;SDS011;13750;50.804;8.764;2022-08-01T10:17:07;4.35;;;3.50;;
25952;SDS011;13750;50.804;8.764;2022-08-01T10:19:35;3.75;;;3.45;;
25952;SDS011;13750;50.804;8.764;2022-08-01T10:22:03;3.38;;;2.75;;
25952;SDS011;13750;50.804;8.764;2022-08-01T10:24:33;3.83;;;3.05;;
25952;SDS011;13750;50.804;8.764;2022-08-01T10:27:04;3.25;;;2.95;;
25952;SDS011;13750;50.804;8.764;2022-08-01T10:29:37;3.28;;;2.97;;
25952;SDS011;13750;50.804;8.764;2022-08-01T10:32:10;2.97;;;2.65;;
25952;SDS011;13750;50.804;8.764;2022-08-01T10:34:36;3.13;;;2.83;;
25952;SDS011;13750;50.804;8.764;2022-08-01T10:37:03;2.97;;;2.65;;
25952;SDS011;13750;50.804;8.764;2022-08-01T10:39:30;2.78;;;2.53;;
25952;SDS011;13750;50.804;8.764;2022-08-01T10:41:57;2.58;;;2.22;;
25952;SDS011;13750;50.804;8.764;2022-08-01T10:44:24;3.33;;;2.53;;
25952;SDS011;13750;50.804;8.764;2022-08-01T10:46:52;2.58;;;2.38;;
25952;SDS011;13750;50.804;8.764;2022-08-01T10:49:22;2.67;;;2.47;;
25952;SDS011;13750;50.804;8.764;2022-08-01T10:51:51;2.90;;;2.35;;
25952;SDS011;13750;50.804;8.764;2022-08-01T10:54:17;2.63;;;2.43;;
25952;SDS011;13750;50.804;8.764;2022-08-01T10:56:43;2.40;;;1.90;;
25952;SDS011;13750;50.804;8.764;2022-08-01T10:59:14;2.80;;;2.40;;
25952;SDS011;13750;50.804;8.764;2022-08-01T11:02:00;3.33;;;3.03;;
25952;SDS011;13750;50.804;8.764;2022-08-01T11:07:18;2.50;;;2.30;;
25952;SDS011;13750;50.804;8.764;2022-08-01T11:09:47;2.78;;;2.58;;
25952;SDS011;13750;50.804;8.764;2022-08-01T11:12:37;2.55;;;2.35;;
25952;SDS011;13750;50.804;8.764;2022-08-01T11:20:19;3.22;;;2.47;;
25952;SDS011;13750;50.804;8.764;2022-08-01T11:25:26;2.58;;;2.33;;
25952;SDS011;13750;50.804;8.764;2022-08-01T11:30:38;2.45;;;2.25;;
25952;SDS011;13750;50.804;8.764;2022-08-01T11:33:04;2.38;;;2.17;;
25952;SDS011;13750;50.804;8.764;2022-08-01T11:35:31;2.90;;;2.42;;
25952;SDS011;13750;50.804;8.764;2022-08-01T11:37:57;2.83;;;2.38;;
25952;SDS011;13750;50.804;8.764;2022-08-01T11:41:14;2.43;;;1.80;;
25952;SDS011;13750;50.804;8.764;2022-08-01T11:57:09;2.45;;;2.25;;
25952;SDS011;13750;50.804;8.764;2022-08-01T12:02:29;2.63;;;2.42;;
25952;SDS011;13750;50.804;8.764;2022-08-01T12:10:00;2.43;;;2.23;;
25952;SDS011;13750;50.804;8.764;2022-08-01T12:12:35;3.05;;;2.20;;
25952;SDS011;13750;50.804;8.764;2022-08-01T12:15:06;2.30;;;2.00;;
25952;SDS011;13750;50.804;8.764;2022-08-01T12:20:06;2.35;;;2.15;;
25952;SDS011;13750;50.804;8.764;2022-08-01T12:22:34;2.28;;;1.80;;
25952;SDS011;13750;50.804;8.764;2022-08-01T12:27:37;1.90;;;1.80;;
25952;SDS011;13750;50.804;8.764;2022-08-01T12:30:04;2.05;;;1.80;;
25952;SDS011;13750;50.804;8.764;2022-08-01T12:32:33;1.80;;;1.70;;
25952;SDS011;13750;50.804;8.764;2022-08-01T12:37:38;2.22;;;1.80;;
25952;SDS011;13750;50.804;8.764;2022-08-01T12:40:12;1.92;;;1.70;;
25952;SDS011;13750;50.804;8.764;2022-08-01T12:42:40;1.80;;;1.40;;
25952;SDS011;13750;50.804;8.764;2022-08-01T12:45:08;1.40;;;1.27;;
25952;SDS011;13750;50.804;8.764;2022-08-01T12:47:36;2.05;;;1.85;;
25952;SDS011;13750;50.804;8.764;2022-08-01T12:50:04;2.08;;;1.83;;
25952;SDS011;13750;50.804;8.764;2022-08-01T12:52:36;3.60;;;1.55;;
25952;SDS011;13750;50.804;8.764;2022-08-01T12:57:30;1.20;;;1.10;;
25952;SDS011;13750;50.804;8.764;2022-08-01T13:03:05;1.92;;;1.60;;
25952;SDS011;13750;50.804;8.764;2022-08-01T13:08:14;1.70;;;1.60;;
25952;SDS011;13750;50.804;8.764;2022-08-01T13:10:41;1.25;;;1.15;;
25952;SDS011;13750;50.804;8.764;2022-08-01T13:13:08;1.10;;;1.00;;
25952;SDS011;13750;50.804;8.764;2022-08-01T13:15:35;1.38;;;1.15;;
25952;SDS011;13750;50.804;8.764;2022-08-01T13:21:06;1.15;;;0.95;;
25952;SDS011;13750;50.804;8.764;2022-08-01T13:23:33;1.70;;;1.30;;
25952;SDS011;13750;50.804;8.764;2022-08-01T13:25:59;1.03;;;1.00;;
25952;SDS011;13750;50.804;8.764;2022-08-01T13:28:25;1.30;;;1.20;;
25952;SDS011;13750;50.804;8.764;2022-08-01T13:30:59;1.25;;;1.00;;
25952;SDS011;13750;50.804;8.764;2022-08-01T13:33:40;1.50;;;1.17;;
25952;SDS011;13750;50.804;8.764;2022-08-01T13:36:06;1.80;;;1.35;;
25952;SDS011;13750;50.804;8.764;2022-08-01T13:38:32;2.13;;;1.60;;
25952;SDS011;13750;50.804;8.764;2022-08-01T13:41:16;1.30;;;1.20;;
25952;SDS011;13750;50.804;8.764;2022-08-01T13:43:42;1.33;;;1.20;;
25952;SDS011;13750;50.804;8.764;2022-08-01T13:46:07;2.50;;;1.57;;
25952;SDS011;13750;50.804;8.764;2022-08-01T13:48:33;1.33;;;1.23;;
25952;SDS011;13750;50.804;8.764;2022-08-01T13:50:59;0.97;;;0.90;;
25952;SDS011;13750;50.804;8.764;2022-08-01T13:55:51;1.30;;;1.15;;
25952;SDS011;13750;50.804;8.764;2022-08-01T13:58:17;2.17;;;1.60;;
25952;SDS011;13750;50.804;8.764;2022-08-01T14:00:42;1.10;;;1.00;;
25952;SDS011;13750;50.804;8.764;2022-08-01T14:03:08;1.50;;;1.40;;
25952;SDS011;13750;50.804;8.764;2022-08-01T14:05:35;2.08;;;1.58;;
25952;SDS011;13750;50.804;8.764;2022-08-01T14:08:01;2.25;;;1.30;;
25952;SDS011;13750;50.804;8.764;2022-08-01T14:10:27;1.35;;;1.25;;
25952;SDS011;13750;50.804;8.764;2022-08-01T14:12:53;1.50;;;1.40;;
25952;SDS011;13750;50.804;8.764;2022-08-01T14:15:20;1.58;;;1.40;;
25952;SDS011;13750;50.804;8.764;2022-08-01T14:17:46;1.67;;;1.50;;
25952;SDS011;13750;50.804;8.764;2022-08-01T14:20:11;2.37;;;1.63;;
25952;SDS011;13750;50.804;8.764;2022-08-01T14:22:37;1.50;;;1.40;;
25952;SDS011;13750;50.804;8.764;2022-08-01T14:25:04;1.52;;;1.23;;
25952;SDS011;13750;50.804;8.764;2022-08-01T14:27:30;1.60;;;1.50;;
25952;SDS011;13750;50.804;8.764;2022-08-01T14:29:56;2.55;;;1.50;;
25952;SDS011;13750;50.804;8.764;2022-08-01T14:32:22;1.63;;;1.53;;
25952;SDS011;13750;50.804;8.764;2022-08-01T14:34:47;1.40;;;1.30;;
25952;SDS011;13750;50.804;8.764;2022-08-01T14:37:13;1.23;;;1.13;;
25952;SDS011;13750;50.804;8.764;2022-08-01T14:39:39;1.30;;;1.20;;
25952;SDS011;13750;50.804;8.764;2022-08-01T14:42:04;1.40;;;1.30;;
25952;SDS011;13750;50.804;8.764;2022-08-01T14:44:30;1.42;;;1.23;;
25952;SDS011;13750;50.804;8.764;2022-08-01T14:46:56;1.67;;;1.30;;
25952;SDS011;13750;50.804;8.764;2022-08-01T14:49:21;1.10;;;1.00;;
25952;SDS011;13750;50.804;8.764;2022-08-01T14:51:47;1.47;;;1.37;;
25952;SDS011;13750;50.804;8.764;2022-08-01T14:54:12;1.20;;;1.10;;
25952;SDS011;13750;50.804;8.764;2022-08-01T14:56:38;1.50;;;1.40;;
25952;SDS011;13750;50.804;8.764;2022-08-01T14:59:04;1.30;;;1.20;;
25952;SDS011;13750;50.804;8.764;2022-08-01T15:01:29;2.20;;;2.00;;
25952;SDS011;13750;50.804;8.764;2022-08-01T15:03:55;1.50;;;1.40;;
25952;SDS011;13750;50.804;8.764;2022-08-01T15:06:21;1.57;;;1.47;;
25952;SDS011;13750;50.804;8.764;2022-08-01T15:08:47;1.98;;;1.88;;
25952;SDS011;13750;50.804;8.764;2022-08-01T15:11:12;1.65;;;1.50;;
25952;SDS011;13750;50.804;8.764;2022-08-01T15:13:38;1.97;;;1.87;;
25952;SDS011;13750;50.804;8.764;2022-08-01T15:16:04;1.80;;;1.70;;
25952;SDS011;13750;50.804;8.764;2022-08-01T15:18:29;2.53;;;1.20;;
25952;SDS011;13750;50.804;8.764;2022-08-01T15:20:55;1.87;;;1.70;;
25952;SDS011;13750;50.804;8.764;2022-08-01T15:23:22;1.58;;;1.40;;
25952;SDS011;13750;50.804;8.764;2022-08-01T15:25:47;2.27;;;1.70;;
25952;SDS011;13750;50.804;8.764;2022-08-01T15:28:13;1.50;;;1.40;;
25952;SDS011;13750;50.804;8.764;2022-08-01T15:30:39;4.57;;;1.70;;
25952;SDS011;13750;50.804;8.764;2022-08-01T15:33:05;1.33;;;1.23;;
25952;SDS011;13750;50.804;8.764;2022-08-01T15:35:31;1.27;;;1.17;;
25952;SDS011;13750;50.804;8.764;2022-08-01T15:37:57;1.55;;;1.45;;
25952;SDS011;13750;50.804;8.764;2022-08-01T15:40:23;1.30;;;1.20;;
25952;SDS011;13750;50.804;8.764;2022-08-01T15:42:49;2.35;;;1.08;;
25952;SDS011;13750;50.804;8.764;2022-08-01T15:45:14;1.37;;;1.27;;
25952;SDS011;13750;50.804;8.764;2022-08-01T15:47:43;1.42;;;1.33;;
25952;SDS011;13750;50.804;8.764;2022-08-01T15:50:09;1.60;;;1.38;;
25952;SDS011;13750;50.804;8.764;2022-08-01T15:52:35;1.60;;;1.50;;
25952;SDS011;13750;50.804;8.764;2022-08-01T15:55:00;1.63;;;1.30;;
25952;SDS011;13750;50.804;8.764;2022-08-01T15:57:26;1.55;;;1.45;;
25952;SDS011;13750;50.804;8.764;2022-08-01T15:59:52;1.50;;;1.40;;
25952;SDS011;13750;50.804;8.764;2022-08-01T16:02:18;1.63;;;1.50;;
25952;SDS011;13750;50.804;8.764;2022-08-01T16:04:43;1.75;;;1.65;;
25952;SDS011;13750;50.804;8.764;2022-08-01T16:07:09;1.40;;;1.30;;
25952;SDS011;13750;50.804;8.764;2022-08-01T16:09:35;2.05;;;1.30;;
25952;SDS011;13750;50.804;8.764;2022-08-01T16:12:01;1.58;;;1.48;;
25952;SDS011;13750;50.804;8.764;2022-08-01T16:14:26;1.52;;;1.42;;
25952;SDS011;13750;50.804;8.764;2022-08-01T16:16:52;1.50;;;1.40;;
25952;SDS011;13750;50.804;8.764;2022-08-01T16:19:18;1.80;;;1.70;;